sensor_id;sensor_type;location;lat;lon;timestamp;temperature;humidity
324;DHT22;149;51.094;17.002;2024-02-15T00:28:18;8.20;99.90
324;DHT22;149;51.094;17.002;2024-02-15T00:30:46;8.20;99.90
324;DHT22;149;51.094;17.002;2024-02-15T00:33:15;8.10;99.90
324;DHT22;149;51.094;17.002;2024-02-15T00:35:42;8.10;99.90
324;DHT22;149;51.094;17.002;2024-02-15T00:38:10;8.10;99.90
324;DHT22;149;51.094;17.002;2024-02-15T00:40:37;8.10;99.90
324;DHT22;149;51.094;17.002;2024-02-15T00:43:05;8.20;99.90
324;DHT22;149;51.094;17.002;2024-02-15T00:45:32;8.10;99.90
324;DHT22;149;51.094;17.002;2024-02-15T00:47:59;8.00;99.90
324;DHT22;149;51.094;17.002;2024-02-15T00:50:26;8.00;99.90
324;DHT22;149;51.094;17.002;2024-02-15T00:52:54;8.00;99.90
324;DHT22;149;51.094;17.002;2024-02-15T00:55:21;8.00;99.90
324;DHT22;149;51.094;17.002;2024-02-15T00:57:48;8.20;99.90
324;DHT22;149;51.094;17.002;2024-02-15T01:00:15;8.00;99.90
324;DHT22;149;51.094;17.002;2024-02-15T01:02:42;8.00;99.90
324;DHT22;149;51.094;17.002;2024-02-15T01:05:09;8.00;99.90
324;DHT22;149;51.094;17.002;2024-02-15T01:07:37;8.10;99.90
324;DHT22;149;51.094;17.002;2024-02-15T01:10:04;8.00;99.90
324;DHT22;149;51.094;17.002;2024-02-15T01:12:33;8.00;99.90
324;DHT22;149;51.094;17.002;2024-02-15T01:14:59;8.10;99.90
324;DHT22;149;51.094;17.002;2024-02-15T01:17:27;8.10;99.90
324;DHT22;149;51.094;17.002;2024-02-15T01:19:54;8.10;99.90
324;DHT22;149;51.094;17.002;2024-02-15T01:22:22;8.10;99.90
324;DHT22;149;51.094;17.002;2024-02-15T01:24:52;8.20;99.90
324;DHT22;149;51.094;17.002;2024-02-15T01:27:19;8.10;99.90
324;DHT22;149;51.094;17.002;2024-02-15T01:29:46;8.10;99.90
324;DHT22;149;51.094;17.002;2024-02-15T01:32:13;8.00;99.90
324;DHT22;149;51.094;17.002;2024-02-15T01:34:41;8.00;99.90
324;DHT22;149;51.094;17.002;2024-02-15T01:37:09;8.20;99.90
324;DHT22;149;51.094;17.002;2024-02-15T01:39:36;8.10;99.90
324;DHT22;149;51.094;17.002;2024-02-15T01:42:03;8.00;99.90
324;DHT22;149;51.094;17.002;2024-02-15T01:44:30;8.00;99.90
324;DHT22;149;51.094;17.002;2024-02-15T01:46:57;8.00;99.90
324;DHT22;149;51.094;17.002;2024-02-15T01:49:27;8.00;99.90
324;DHT22;149;51.094;17.002;2024-02-15T01:51:56;8.00;99.90
324;DHT22;149;51.094;17.002;2024-02-15T01:54:24;8.00;99.90
324;DHT22;149;51.094;17.002;2024-02-15T01:56:52;8.10;99.90
324;DHT22;149;51.094;17.002;2024-02-15T01:59:22;8.00;99.90
324;DHT22;149;51.094;17.002;2024-02-15T02:01:50;8.00;99.90
324;DHT22;149;51.094;17.002;2024-02-15T02:04:17;8.00;99.90
324;DHT22;149;51.094;17.002;2024-02-15T02:06:44;8.00;99.90
324;DHT22;149;51.094;17.002;2024-02-15T02:09:12;8.00;99.90
324;DHT22;149;51.094;17.002;2024-02-15T02:11:45;8.00;99.90
324;DHT22;149;51.094;17.002;2024-02-15T02:14:13;8.00;99.90
324;DHT22;149;51.094;17.002;2024-02-15T02:16:40;8.00;99.90
324;DHT22;149;51.094;17.002;2024-02-15T02:19:07;8.00;99.90
324;DHT22;149;51.094;17.002;2024-02-15T02:21:36;8.10;99.90
324;DHT22;149;51.094;17.002;2024-02-15T02:24:21;8.00;99.90
324;DHT22;149;51.094;17.002;2024-02-15T02:26:52;8.00;99.90
324;DHT22;149;51.094;17.002;2024-02-15T02:29:20;8.00;99.90
324;DHT22;149;51.094;17.002;2024-02-15T02:31:48;8.00;99.90
324;DHT22;149;51.094;17.002;2024-02-15T02:34:15;8.10;99.90
324;DHT22;149;51.094;17.002;2024-02-15T02:36:46;8.20;99.90
324;DHT22;149;51.094;17.002;2024-02-15T02:39:14;8.00;99.90
324;DHT22;149;51.094;17.002;2024-02-15T02:41:41;8.10;99.90
324;DHT22;149;51.094;17.002;2024-02-15T02:44:09;8.00;99.90
324;DHT22;149;51.094;17.002;2024-02-15T02:46:36;8.00;99.90
324;DHT22;149;51.094;17.002;2024-02-15T02:49:04;8.00;99.90
324;DHT22;149;51.094;17.002;2024-02-15T02:51:31;8.00;99.90
324;DHT22;149;51.094;17.002;2024-02-15T02:53:58;8.00;99.90
324;DHT22;149;51.094;17.002;2024-02-15T02:56:25;8.00;99.90
324;DHT22;149;51.094;17.002;2024-02-15T02:58:52;7.80;99.90
324;DHT22;149;51.094;17.002;2024-02-15T03:01:23;7.90;99.90
324;DHT22;149;51.094;17.002;2024-02-15T03:03:55;7.90;99.90
324;DHT22;149;51.094;17.002;2024-02-15T03:06:23;7.90;99.90
324;DHT22;149;51.094;17.002;2024-02-15T03:08:51;8.00;99.90
324;DHT22;149;51.094;17.002;2024-02-15T03:11:21;8.00;99.90
324;DHT22;149;51.094;17.002;2024-02-15T03:13:49;8.00;99.90
324;DHT22;149;51.094;17.002;2024-02-15T03:16:16;8.00;99.90
324;DHT22;149;51.094;17.002;2024-02-15T03:18:43;8.10;99.90
324;DHT22;149;51.094;17.002;2024-02-15T03:21:11;8.00;99.90
324;DHT22;149;51.094;17.002;2024-02-15T03:23:38;8.00;99.90
324;DHT22;149;51.094;17.002;2024-02-15T03:26:08;8.00;99.90
324;DHT22;149;51.094;17.002;2024-02-15T03:28:35;8.00;99.90
324;DHT22;149;51.094;17.002;2024-02-15T03:31:04;8.10;99.90
324;DHT22;149;51.094;17.002;2024-02-15T03:33:31;8.10;99.90
324;DHT22;149;51.094;17.002;2024-02-15T03:36:02;8.00;99.90
324;DHT22;149;51.094;17.002;2024-02-15T03:38:30;8.10;99.90
324;DHT22;149;51.094;17.002;2024-02-15T03:40:58;8.10;99.90
324;DHT22;149;51.094;17.002;2024-02-15T03:43:26;8.10;99.90
324;DHT22;149;51.094;17.002;2024-02-15T03:45:54;8.10;99.90
324;DHT22;149;51.094;17.002;2024-02-15T03:48:21;8.10;99.90
324;DHT22;149;51.094;17.002;2024-02-15T03:50:48;8.10;99.90
324;DHT22;149;51.094;17.002;2024-02-15T03:53:16;8.10;99.90
324;DHT22;149;51.094;17.002;2024-02-15T03:55:43;8.10;99.90
324;DHT22;149;51.094;17.002;2024-02-15T03:58:10;8.10;99.90
324;DHT22;149;51.094;17.002;2024-02-15T04:00:39;8.10;99.90
324;DHT22;149;51.094;17.002;2024-02-15T04:03:07;8.00;99.90
324;DHT22;149;51.094;17.002;2024-02-15T04:05:34;8.20;99.90
324;DHT22;149;51.094;17.002;2024-02-15T04:08:02;8.30;99.90
324;DHT22;149;51.094;17.002;2024-02-15T04:10:29;8.10;99.90
324;DHT22;149;51.094;17.002;2024-02-15T04:12:57;8.10;99.90
324;DHT22;149;51.094;17.002;2024-02-15T04:15:25;8.20;99.90
324;DHT22;149;51.094;17.002;2024-02-15T04:17:52;8.10;99.90
324;DHT22;149;51.094;17.002;2024-02-15T04:20:23;8.10;99.90
324;DHT22;149;51.094;17.002;2024-02-15T04:22:50;8.20;99.90
324;DHT22;149;51.094;17.002;2024-02-15T04:25:17;8.10;99.90
324;DHT22;149;51.094;17.002;2024-02-15T04:27:46;8.20;99.90
324;DHT22;149;51.094;17.002;2024-02-15T04:30:14;8.10;99.90
324;DHT22;149;51.094;17.002;2024-02-15T04:32:43;8.10;99.90
324;DHT22;149;51.094;17.002;2024-02-15T04:35:12;8.10;99.90
324;DHT22;149;51.094;17.002;2024-02-15T04:37:41;8.10;99.90
324;DHT22;149;51.094;17.002;2024-02-15T04:40:08;8.00;99.90
324;DHT22;149;51.094;17.002;2024-02-15T04:42:37;8.00;99.90
324;DHT22;149;51.094;17.002;2024-02-15T04:45:08;8.10;99.90
324;DHT22;149;51.094;17.002;2024-02-15T04:47:35;8.00;99.90
324;DHT22;149;51.094;17.002;2024-02-15T04:50:04;8.00;99.90
324;DHT22;149;51.094;17.002;2024-02-15T04:52:33;8.00;99.90
324;DHT22;149;51.094;17.002;2024-02-15T04:55:00;8.00;99.90
324;DHT22;149;51.094;17.002;2024-02-15T04:57:28;8.00;99.90
324;DHT22;149;51.094;17.002;2024-02-15T04:59:55;8.00;99.90
324;DHT22;149;51.094;17.002;2024-02-15T05:02:22;7.90;99.90
324;DHT22;149;51.094;17.002;2024-02-15T05:04:51;8.00;99.90
324;DHT22;149;51.094;17.002;2024-02-15T05:07:23;7.90;99.90
324;DHT22;149;51.094;17.002;2024-02-15T05:09:50;7.90;99.90
324;DHT22;149;51.094;17.002;2024-02-15T05:12:23;7.90;99.90
324;DHT22;149;51.094;17.002;2024-02-15T05:14:54;7.90;99.90
324;DHT22;149;51.094;17.002;2024-02-15T05:17:21;7.80;99.90
324;DHT22;149;51.094;17.002;2024-02-15T05:19:49;7.80;99.90
324;DHT22;149;51.094;17.002;2024-02-15T05:22:17;7.70;99.90
324;DHT22;149;51.094;17.002;2024-02-15T05:24:45;7.80;99.90
324;DHT22;149;51.094;17.002;2024-02-15T05:27:12;7.70;99.90
324;DHT22;149;51.094;17.002;2024-02-15T05:29:40;7.60;99.90
324;DHT22;149;51.094;17.002;2024-02-15T05:32:10;7.60;99.90
324;DHT22;149;51.094;17.002;2024-02-15T05:34:37;7.70;99.90
324;DHT22;149;51.094;17.002;2024-02-15T05:37:07;7.60;99.90
324;DHT22;149;51.094;17.002;2024-02-15T05:39:34;7.60;99.90
324;DHT22;149;51.094;17.002;2024-02-15T05:42:03;7.50;99.90
324;DHT22;149;51.094;17.002;2024-02-15T05:44:31;7.50;99.90
324;DHT22;149;51.094;17.002;2024-02-15T05:46:58;7.50;99.90
324;DHT22;149;51.094;17.002;2024-02-15T05:49:25;7.50;99.90
324;DHT22;149;51.094;17.002;2024-02-15T05:51:55;7.60;99.90
324;DHT22;149;51.094;17.002;2024-02-15T05:54:23;7.60;99.90
324;DHT22;149;51.094;17.002;2024-02-15T05:56:50;7.70;99.90
324;DHT22;149;51.094;17.002;2024-02-15T05:59:20;7.60;99.90
324;DHT22;149;51.094;17.002;2024-02-15T06:01:48;7.60;99.90
324;DHT22;149;51.094;17.002;2024-02-15T06:04:15;7.60;99.90
324;DHT22;149;51.094;17.002;2024-02-15T06:06:44;7.60;99.90
324;DHT22;149;51.094;17.002;2024-02-15T06:09:16;7.60;99.90
324;DHT22;149;51.094;17.002;2024-02-15T06:11:44;7.70;99.90
324;DHT22;149;51.094;17.002;2024-02-15T06:14:12;7.60;99.90
324;DHT22;149;51.094;17.002;2024-02-15T06:16:44;7.70;99.90
324;DHT22;149;51.094;17.002;2024-02-15T06:19:11;7.70;99.90
324;DHT22;149;51.094;17.002;2024-02-15T06:21:38;7.70;99.90
324;DHT22;149;51.094;17.002;2024-02-15T06:24:07;7.80;99.90
324;DHT22;149;51.094;17.002;2024-02-15T06:26:34;7.80;99.90
324;DHT22;149;51.094;17.002;2024-02-15T06:29:01;7.80;99.90
324;DHT22;149;51.094;17.002;2024-02-15T06:31:46;7.90;99.90
324;DHT22;149;51.094;17.002;2024-02-15T06:34:32;7.80;99.90
324;DHT22;149;51.094;17.002;2024-02-15T06:37:36;7.90;99.90
324;DHT22;149;51.094;17.002;2024-02-15T06:40:22;8.00;99.90
324;DHT22;149;51.094;17.002;2024-02-15T06:42:50;8.00;99.90
324;DHT22;149;51.094;17.002;2024-02-15T06:45:18;8.00;99.90
324;DHT22;149;51.094;17.002;2024-02-15T06:47:46;7.90;99.90
324;DHT22;149;51.094;17.002;2024-02-15T06:50:14;8.10;99.90
324;DHT22;149;51.094;17.002;2024-02-15T06:52:41;8.10;99.90
324;DHT22;149;51.094;17.002;2024-02-15T06:55:09;8.20;99.90
324;DHT22;149;51.094;17.002;2024-02-15T06:57:39;8.20;99.90
324;DHT22;149;51.094;17.002;2024-02-15T07:00:10;8.30;99.90
324;DHT22;149;51.094;17.002;2024-02-15T07:02:42;8.20;99.90
324;DHT22;149;51.094;17.002;2024-02-15T07:05:11;8.30;99.90
324;DHT22;149;51.094;17.002;2024-02-15T07:07:39;8.30;99.90
324;DHT22;149;51.094;17.002;2024-02-15T07:10:06;8.40;99.90
324;DHT22;149;51.094;17.002;2024-02-15T07:12:36;8.40;99.90
324;DHT22;149;51.094;17.002;2024-02-15T07:15:05;8.40;99.90
324;DHT22;149;51.094;17.002;2024-02-15T07:17:36;8.50;99.90
324;DHT22;149;51.094;17.002;2024-02-15T07:20:11;8.50;99.90
324;DHT22;149;51.094;17.002;2024-02-15T07:22:42;8.60;99.90
324;DHT22;149;51.094;17.002;2024-02-15T07:25:09;8.70;99.90
324;DHT22;149;51.094;17.002;2024-02-15T07:27:37;8.80;99.90
324;DHT22;149;51.094;17.002;2024-02-15T07:30:04;9.00;99.90
324;DHT22;149;51.094;17.002;2024-02-15T07:32:32;9.00;99.90
324;DHT22;149;51.094;17.002;2024-02-15T07:35:02;9.10;99.90
324;DHT22;149;51.094;17.002;2024-02-15T07:37:29;9.20;99.90
324;DHT22;149;51.094;17.002;2024-02-15T07:39:57;9.30;99.90
324;DHT22;149;51.094;17.002;2024-02-15T07:42:24;9.50;99.90
324;DHT22;149;51.094;17.002;2024-02-15T07:44:53;9.20;99.90
324;DHT22;149;51.094;17.002;2024-02-15T07:47:20;9.40;99.90
324;DHT22;149;51.094;17.002;2024-02-15T07:49:51;9.10;99.90
324;DHT22;149;51.094;17.002;2024-02-15T07:52:18;9.20;99.90
324;DHT22;149;51.094;17.002;2024-02-15T07:54:45;9.30;99.90
324;DHT22;149;51.094;17.002;2024-02-15T07:57:13;9.40;99.90
324;DHT22;149;51.094;17.002;2024-02-15T07:59:40;9.30;99.90
324;DHT22;149;51.094;17.002;2024-02-15T08:02:09;9.30;99.90
324;DHT22;149;51.094;17.002;2024-02-15T08:04:36;9.40;99.90
324;DHT22;149;51.094;17.002;2024-02-15T08:07:08;9.40;99.90
324;DHT22;149;51.094;17.002;2024-02-15T08:09:38;9.40;99.90
324;DHT22;149;51.094;17.002;2024-02-15T08:12:09;9.50;99.90
324;DHT22;149;51.094;17.002;2024-02-15T08:14:36;9.60;99.90
324;DHT22;149;51.094;17.002;2024-02-15T08:17:03;9.60;99.90
324;DHT22;149;51.094;17.002;2024-02-15T08:19:30;9.60;99.90
324;DHT22;149;51.094;17.002;2024-02-15T08:22:02;9.70;99.90
324;DHT22;149;51.094;17.002;2024-02-15T08:24:31;9.70;99.90
324;DHT22;149;51.094;17.002;2024-02-15T08:26:58;9.70;99.90
324;DHT22;149;51.094;17.002;2024-02-15T08:29:26;9.80;99.90
324;DHT22;149;51.094;17.002;2024-02-15T08:31:54;9.80;99.90
324;DHT22;149;51.094;17.002;2024-02-15T08:34:21;9.80;99.90
324;DHT22;149;51.094;17.002;2024-02-15T08:36:48;10.00;99.90
324;DHT22;149;51.094;17.002;2024-02-15T08:39:17;9.90;99.90
324;DHT22;149;51.094;17.002;2024-02-15T08:41:44;9.90;99.90
324;DHT22;149;51.094;17.002;2024-02-15T08:44:11;10.10;99.90
324;DHT22;149;51.094;17.002;2024-02-15T08:46:42;10.10;99.90
324;DHT22;149;51.094;17.002;2024-02-15T08:49:09;10.10;99.90
324;DHT22;149;51.094;17.002;2024-02-15T08:51:39;10.10;99.90
324;DHT22;149;51.094;17.002;2024-02-15T08:54:06;10.20;99.90
324;DHT22;149;51.094;17.002;2024-02-15T08:56:35;10.30;99.90
324;DHT22;149;51.094;17.002;2024-02-15T08:59:02;10.50;99.90
324;DHT22;149;51.094;17.002;2024-02-15T09:01:30;10.60;99.90
324;DHT22;149;51.094;17.002;2024-02-15T09:03:57;10.90;99.90
324;DHT22;149;51.094;17.002;2024-02-15T09:06:25;11.00;99.90
324;DHT22;149;51.094;17.002;2024-02-15T09:08:52;11.20;99.90
324;DHT22;149;51.094;17.002;2024-02-15T09:11:20;11.30;99.90
324;DHT22;149;51.094;17.002;2024-02-15T09:13:47;11.30;99.90
324;DHT22;149;51.094;17.002;2024-02-15T09:16:16;11.50;99.90
324;DHT22;149;51.094;17.002;2024-02-15T09:18:43;11.60;99.90
324;DHT22;149;51.094;17.002;2024-02-15T09:21:12;11.70;99.90
324;DHT22;149;51.094;17.002;2024-02-15T09:23:41;11.70;99.90
324;DHT22;149;51.094;17.002;2024-02-15T09:26:08;11.80;99.90
324;DHT22;149;51.094;17.002;2024-02-15T09:28:36;11.80;99.90
324;DHT22;149;51.094;17.002;2024-02-15T09:31:04;11.90;99.90
324;DHT22;149;51.094;17.002;2024-02-15T09:33:31;11.90;99.90
324;DHT22;149;51.094;17.002;2024-02-15T09:35:58;11.90;99.90
324;DHT22;149;51.094;17.002;2024-02-15T09:38:25;11.90;99.90
324;DHT22;149;51.094;17.002;2024-02-15T09:40:52;11.80;99.90
324;DHT22;149;51.094;17.002;2024-02-15T09:43:19;11.70;99.90
324;DHT22;149;51.094;17.002;2024-02-15T09:45:49;11.70;99.90
324;DHT22;149;51.094;17.002;2024-02-15T09:48:17;11.70;99.90
324;DHT22;149;51.094;17.002;2024-02-15T09:50:45;11.60;99.90
324;DHT22;149;51.094;17.002;2024-02-15T09:53:15;11.80;99.90
324;DHT22;149;51.094;17.002;2024-02-15T09:55:43;11.70;99.90
324;DHT22;149;51.094;17.002;2024-02-15T09:58:11;11.70;99.90
324;DHT22;149;51.094;17.002;2024-02-15T10:00:39;11.80;99.90
324;DHT22;149;51.094;17.002;2024-02-15T10:03:07;11.80;99.90
324;DHT22;149;51.094;17.002;2024-02-15T10:05:35;11.80;99.90
324;DHT22;149;51.094;17.002;2024-02-15T10:08:03;12.00;99.90
324;DHT22;149;51.094;17.002;2024-02-15T10:10:30;12.20;99.90
324;DHT22;149;51.094;17.002;2024-02-15T10:13:00;12.30;99.90
324;DHT22;149;51.094;17.002;2024-02-15T10:18:02;12.40;99.90
324;DHT22;149;51.094;17.002;2024-02-15T10:20:30;12.40;99.90
324;DHT22;149;51.094;17.002;2024-02-15T10:25:27;12.50;99.90
324;DHT22;149;51.094;17.002;2024-02-15T10:28:09;12.60;99.90
324;DHT22;149;51.094;17.002;2024-02-15T10:30:42;12.70;99.90
324;DHT22;149;51.094;17.002;2024-02-15T10:33:20;12.70;99.90
324;DHT22;149;51.094;17.002;2024-02-15T10:36:10;12.70;99.90
324;DHT22;149;51.094;17.002;2024-02-15T10:38:38;12.80;99.90
324;DHT22;149;51.094;17.002;2024-02-15T10:41:07;12.80;99.90
324;DHT22;149;51.094;17.002;2024-02-15T10:43:36;13.00;99.90
324;DHT22;149;51.094;17.002;2024-02-15T10:46:08;13.10;99.90
324;DHT22;149;51.094;17.002;2024-02-15T10:48:37;13.40;99.90
324;DHT22;149;51.094;17.002;2024-02-15T10:51:10;13.90;99.90
324;DHT22;149;51.094;17.002;2024-02-15T10:53:39;14.00;99.90
324;DHT22;149;51.094;17.002;2024-02-15T10:56:26;14.10;99.90
324;DHT22;149;51.094;17.002;2024-02-15T10:59:03;14.20;99.90
324;DHT22;149;51.094;17.002;2024-02-15T11:01:36;14.00;99.90
324;DHT22;149;51.094;17.002;2024-02-15T11:04:08;14.00;99.90
324;DHT22;149;51.094;17.002;2024-02-15T11:06:39;13.20;99.90
324;DHT22;149;51.094;17.002;2024-02-15T11:09:12;13.20;99.90
324;DHT22;149;51.094;17.002;2024-02-15T11:11:41;13.20;99.90
324;DHT22;149;51.094;17.002;2024-02-15T11:16:51;13.50;99.90
324;DHT22;149;51.094;17.002;2024-02-15T11:22:16;13.30;99.90
324;DHT22;149;51.094;17.002;2024-02-15T11:24:52;13.50;99.90
324;DHT22;149;51.094;17.002;2024-02-15T11:27:27;13.60;99.90
324;DHT22;149;51.094;17.002;2024-02-15T11:29:56;14.00;99.90
324;DHT22;149;51.094;17.002;2024-02-15T11:32:37;14.10;99.90
324;DHT22;149;51.094;17.002;2024-02-15T11:35:08;14.00;99.90
324;DHT22;149;51.094;17.002;2024-02-15T11:42:51;13.50;99.90
324;DHT22;149;51.094;17.002;2024-02-15T11:45:20;13.40;99.90
324;DHT22;149;51.094;17.002;2024-02-15T11:47:53;13.50;99.90
324;DHT22;149;51.094;17.002;2024-02-15T11:50:21;13.30;99.90
324;DHT22;149;51.094;17.002;2024-02-15T11:52:51;13.40;99.90
324;DHT22;149;51.094;17.002;2024-02-15T11:55:22;13.30;99.90
324;DHT22;149;51.094;17.002;2024-02-15T11:57:55;13.60;99.90
324;DHT22;149;51.094;17.002;2024-02-15T12:00:30;13.80;99.90
324;DHT22;149;51.094;17.002;2024-02-15T12:03:17;13.80;99.90
324;DHT22;149;51.094;17.002;2024-02-15T12:06:03;13.80;99.90
324;DHT22;149;51.094;17.002;2024-02-15T12:08:51;13.60;99.90
324;DHT22;149;51.094;17.002;2024-02-15T12:11:37;13.80;99.90
324;DHT22;149;51.094;17.002;2024-02-15T12:14:24;13.60;99.90
324;DHT22;149;51.094;17.002;2024-02-15T12:17:13;13.80;99.90
324;DHT22;149;51.094;17.002;2024-02-15T12:20:01;14.10;99.90
324;DHT22;149;51.094;17.002;2024-02-15T12:22:46;14.30;99.90
324;DHT22;149;51.094;17.002;2024-02-15T12:25:15;14.20;99.90
324;DHT22;149;51.094;17.002;2024-02-15T12:27:46;14.40;99.90
324;DHT22;149;51.094;17.002;2024-02-15T12:30:20;14.40;99.90
324;DHT22;149;51.094;17.002;2024-02-15T12:32:52;14.10;99.90
324;DHT22;149;51.094;17.002;2024-02-15T12:35:20;14.20;99.90
324;DHT22;149;51.094;17.002;2024-02-15T12:37:48;14.20;99.90
324;DHT22;149;51.094;17.002;2024-02-15T12:40:21;14.00;99.90
324;DHT22;149;51.094;17.002;2024-02-15T12:42:49;14.30;99.90
324;DHT22;149;51.094;17.002;2024-02-15T12:45:17;14.30;99.90
324;DHT22;149;51.094;17.002;2024-02-15T12:47:50;14.40;99.90
324;DHT22;149;51.094;17.002;2024-02-15T12:50:19;14.40;99.90
324;DHT22;149;51.094;17.002;2024-02-15T12:52:47;14.50;99.90
324;DHT22;149;51.094;17.002;2024-02-15T12:55:19;14.90;99.90
324;DHT22;149;51.094;17.002;2024-02-15T12:57:54;15.00;99.90
324;DHT22;149;51.094;17.002;2024-02-15T13:00:26;14.70;99.90
324;DHT22;149;51.094;17.002;2024-02-15T13:03:01;14.50;99.90
324;DHT22;149;51.094;17.002;2024-02-15T13:05:31;14.40;99.90
324;DHT22;149;51.094;17.002;2024-02-15T13:07:59;14.40;99.90
324;DHT22;149;51.094;17.002;2024-02-15T13:10:29;14.30;99.90
324;DHT22;149;51.094;17.002;2024-02-15T13:12:58;14.30;99.90
324;DHT22;149;51.094;17.002;2024-02-15T13:15:25;14.60;99.90
324;DHT22;149;51.094;17.002;2024-02-15T13:18:01;14.70;99.90
324;DHT22;149;51.094;17.002;2024-02-15T13:20:31;14.40;99.90
324;DHT22;149;51.094;17.002;2024-02-15T13:23:08;14.40;99.90
324;DHT22;149;51.094;17.002;2024-02-15T13:25:38;14.40;99.90
324;DHT22;149;51.094;17.002;2024-02-15T13:28:11;14.60;99.90
324;DHT22;149;51.094;17.002;2024-02-15T13:30:41;14.50;99.90
324;DHT22;149;51.094;17.002;2024-02-15T13:33:11;14.40;99.90
324;DHT22;149;51.094;17.002;2024-02-15T13:35:38;14.40;99.90
324;DHT22;149;51.094;17.002;2024-02-15T13:38:05;14.40;99.90
324;DHT22;149;51.094;17.002;2024-02-15T13:40:35;14.30;99.90
324;DHT22;149;51.094;17.002;2024-02-15T13:43:03;14.30;99.90
324;DHT22;149;51.094;17.002;2024-02-15T13:45:39;14.30;99.90
324;DHT22;149;51.094;17.002;2024-02-15T13:48:07;14.30;99.90
324;DHT22;149;51.094;17.002;2024-02-15T13:50:37;14.40;99.90
324;DHT22;149;51.094;17.002;2024-02-15T13:53:06;14.20;99.90
324;DHT22;149;51.094;17.002;2024-02-15T13:55:37;14.30;99.90
324;DHT22;149;51.094;17.002;2024-02-15T13:58:04;14.20;99.90
324;DHT22;149;51.094;17.002;2024-02-15T14:00:32;14.20;99.90
324;DHT22;149;51.094;17.002;2024-02-15T14:03:05;14.20;99.90
324;DHT22;149;51.094;17.002;2024-02-15T14:05:34;14.20;99.90
324;DHT22;149;51.094;17.002;2024-02-15T14:08:04;14.30;99.90
324;DHT22;149;51.094;17.002;2024-02-15T14:10:33;14.30;99.90
324;DHT22;149;51.094;17.002;2024-02-15T14:13:03;14.20;99.90
324;DHT22;149;51.094;17.002;2024-02-15T14:15:31;14.20;99.90
324;DHT22;149;51.094;17.002;2024-02-15T14:18:10;14.10;99.90
324;DHT22;149;51.094;17.002;2024-02-15T14:20:40;14.10;99.90
324;DHT22;149;51.094;17.002;2024-02-15T14:23:10;14.10;99.90
324;DHT22;149;51.094;17.002;2024-02-15T14:25:42;14.30;99.90
324;DHT22;149;51.094;17.002;2024-02-15T14:28:09;14.20;99.90
324;DHT22;149;51.094;17.002;2024-02-15T14:30:36;14.10;99.90
324;DHT22;149;51.094;17.002;2024-02-15T14:33:22;13.90;99.90
324;DHT22;149;51.094;17.002;2024-02-15T14:35:59;13.80;99.90
324;DHT22;149;51.094;17.002;2024-02-15T14:38:27;13.60;99.90
324;DHT22;149;51.094;17.002;2024-02-15T14:40:56;13.60;99.90
324;DHT22;149;51.094;17.002;2024-02-15T14:43:25;13.60;99.90
324;DHT22;149;51.094;17.002;2024-02-15T14:45:57;13.50;99.90
324;DHT22;149;51.094;17.002;2024-02-15T14:48:25;13.50;99.90
324;DHT22;149;51.094;17.002;2024-02-15T14:50:53;13.40;99.90
324;DHT22;149;51.094;17.002;2024-02-15T14:53:24;13.40;99.90
324;DHT22;149;51.094;17.002;2024-02-15T14:55:51;13.50;99.90
324;DHT22;149;51.094;17.002;2024-02-15T14:58:20;13.50;99.90
324;DHT22;149;51.094;17.002;2024-02-15T15:00:49;13.50;99.90
324;DHT22;149;51.094;17.002;2024-02-15T15:03:16;13.50;99.90
324;DHT22;149;51.094;17.002;2024-02-15T15:05:44;13.50;99.90
324;DHT22;149;51.094;17.002;2024-02-15T15:08:31;13.50;99.90
324;DHT22;149;51.094;17.002;2024-02-15T15:11:17;13.40;99.90
324;DHT22;149;51.094;17.002;2024-02-15T15:14:04;13.50;99.90
324;DHT22;149;51.094;17.002;2024-02-15T15:16:33;13.40;99.90
324;DHT22;149;51.094;17.002;2024-02-15T15:19:01;13.40;99.90
324;DHT22;149;51.094;17.002;2024-02-15T15:21:30;13.40;99.90
324;DHT22;149;51.094;17.002;2024-02-15T15:23:57;13.30;99.90
324;DHT22;149;51.094;17.002;2024-02-15T15:26:24;13.20;99.90
324;DHT22;149;51.094;17.002;2024-02-15T15:28:51;13.20;99.90
324;DHT22;149;51.094;17.002;2024-02-15T15:31:19;13.10;99.90
324;DHT22;149;51.094;17.002;2024-02-15T15:33:47;13.10;99.90
324;DHT22;149;51.094;17.002;2024-02-15T15:36:19;13.10;99.90
324;DHT22;149;51.094;17.002;2024-02-15T15:38:48;13.10;99.90
324;DHT22;149;51.094;17.002;2024-02-15T15:41:17;13.10;99.90
324;DHT22;149;51.094;17.002;2024-02-15T15:43:45;13.00;99.90
324;DHT22;149;51.094;17.002;2024-02-15T15:46:16;12.90;99.90
324;DHT22;149;51.094;17.002;2024-02-15T15:48:43;12.90;99.90
324;DHT22;149;51.094;17.002;2024-02-15T15:51:12;12.90;99.90
324;DHT22;149;51.094;17.002;2024-02-15T15:53:45;12.80;99.90
324;DHT22;149;51.094;17.002;2024-02-15T15:56:14;12.80;99.90
324;DHT22;149;51.094;17.002;2024-02-15T15:58:41;12.80;99.90
324;DHT22;149;51.094;17.002;2024-02-15T16:01:12;12.80;99.90
324;DHT22;149;51.094;17.002;2024-02-15T16:03:39;12.70;99.90
324;DHT22;149;51.094;17.002;2024-02-15T16:06:07;12.70;99.90
324;DHT22;149;51.094;17.002;2024-02-15T16:08:35;12.60;99.90
324;DHT22;149;51.094;17.002;2024-02-15T16:11:02;12.50;99.90
324;DHT22;149;51.094;17.002;2024-02-15T16:13:29;12.40;99.90
324;DHT22;149;51.094;17.002;2024-02-15T16:15:56;12.30;99.90
324;DHT22;149;51.094;17.002;2024-02-15T16:18:23;12.20;99.90
324;DHT22;149;51.094;17.002;2024-02-15T16:20:51;12.10;99.90
324;DHT22;149;51.094;17.002;2024-02-15T16:23:21;12.00;99.90
324;DHT22;149;51.094;17.002;2024-02-15T16:25:50;11.90;99.90
324;DHT22;149;51.094;17.002;2024-02-15T16:28:18;11.80;99.90
324;DHT22;149;51.094;17.002;2024-02-15T16:30:47;11.70;99.90
324;DHT22;149;51.094;17.002;2024-02-15T16:33:15;11.60;99.90
324;DHT22;149;51.094;17.002;2024-02-15T16:35:43;11.50;99.90
324;DHT22;149;51.094;17.002;2024-02-15T16:38:10;11.50;99.90
324;DHT22;149;51.094;17.002;2024-02-15T16:40:38;11.50;99.90
324;DHT22;149;51.094;17.002;2024-02-15T16:43:05;11.50;99.90
324;DHT22;149;51.094;17.002;2024-02-15T16:45:33;11.40;99.90
324;DHT22;149;51.094;17.002;2024-02-15T16:48:00;11.20;99.90
324;DHT22;149;51.094;17.002;2024-02-15T16:50:29;11.30;99.90
324;DHT22;149;51.094;17.002;2024-02-15T16:52:57;11.10;99.90
324;DHT22;149;51.094;17.002;2024-02-15T16:55:24;11.20;99.90
324;DHT22;149;51.094;17.002;2024-02-15T16:57:58;11.40;99.90
324;DHT22;149;51.094;17.002;2024-02-15T17:00:36;11.20;99.90
324;DHT22;149;51.094;17.002;2024-02-15T17:03:04;11.20;99.90
324;DHT22;149;51.094;17.002;2024-02-15T17:05:33;11.10;99.90
324;DHT22;149;51.094;17.002;2024-02-15T17:08:03;11.00;99.90
324;DHT22;149;51.094;17.002;2024-02-15T17:10:34;10.90;99.90
324;DHT22;149;51.094;17.002;2024-02-15T17:13:03;11.00;99.90
324;DHT22;149;51.094;17.002;2024-02-15T17:15:31;11.00;99.90
324;DHT22;149;51.094;17.002;2024-02-15T17:17:58;11.00;99.90
324;DHT22;149;51.094;17.002;2024-02-15T17:20:25;10.90;99.90
324;DHT22;149;51.094;17.002;2024-02-15T17:22:52;11.00;99.90
324;DHT22;149;51.094;17.002;2024-02-15T17:25:20;10.90;99.90